sensor_id;sensor_type;location;lat;lon;timestamp;temperature;humidity
19496;DHT22;9888;48.606;9.630;2023-11-19T00:01:03;7.70;99.90
19496;DHT22;9888;48.606;9.630;2023-11-19T00:03:33;7.70;99.90
19496;DHT22;9888;48.606;9.630;2023-11-19T00:06:20;7.70;99.90
19496;DHT22;9888;48.606;9.630;2023-11-19T00:08:56;7.70;99.90
19496;DHT22;9888;48.606;9.630;2023-11-19T00:11:24;7.80;99.90
19496;DHT22;9888;48.606;9.630;2023-11-19T00:13:51;7.80;99.90
19496;DHT22;9888;48.606;9.630;2023-11-19T00:16:19;7.80;99.90
19496;DHT22;9888;48.606;9.630;2023-11-19T00:18:48;7.90;99.90
19496;DHT22;9888;48.606;9.630;2023-11-19T00:21:18;7.90;99.90
19496;DHT22;9888;48.606;9.630;2023-11-19T00:23:45;8.00;99.90
19496;DHT22;9888;48.606;9.630;2023-11-19T00:26:13;8.10;99.90
19496;DHT22;9888;48.606;9.630;2023-11-19T00:28:41;8.10;99.90
19496;DHT22;9888;48.606;9.630;2023-11-19T00:31:09;8.00;99.90
19496;DHT22;9888;48.606;9.630;2023-11-19T00:33:38;8.00;99.90
19496;DHT22;9888;48.606;9.630;2023-11-19T00:36:06;8.00;99.90
19496;DHT22;9888;48.606;9.630;2023-11-19T00:38:34;8.00;99.90
19496;DHT22;9888;48.606;9.630;2023-11-19T00:41:01;7.90;99.90
19496;DHT22;9888;48.606;9.630;2023-11-19T00:43:32;7.90;99.90
19496;DHT22;9888;48.606;9.630;2023-11-19T00:46:03;7.90;99.90
19496;DHT22;9888;48.606;9.630;2023-11-19T00:48:34;7.90;99.90
19496;DHT22;9888;48.606;9.630;2023-11-19T00:51:03;7.90;99.90
19496;DHT22;9888;48.606;9.630;2023-11-19T00:53:32;7.90;99.90
19496;DHT22;9888;48.606;9.630;2023-11-19T00:56:00;7.90;99.90
19496;DHT22;9888;48.606;9.630;2023-11-19T00:58:28;7.90;99.90
19496;DHT22;9888;48.606;9.630;2023-11-19T01:00:59;7.90;99.90
19496;DHT22;9888;48.606;9.630;2023-11-19T01:03:27;7.90;99.90
19496;DHT22;9888;48.606;9.630;2023-11-19T01:05:54;7.90;99.90
19496;DHT22;9888;48.606;9.630;2023-11-19T01:08:23;7.90;99.90
19496;DHT22;9888;48.606;9.630;2023-11-19T01:10:54;7.90;99.90
19496;DHT22;9888;48.606;9.630;2023-11-19T01:13:26;7.90;99.90
19496;DHT22;9888;48.606;9.630;2023-11-19T01:15:54;7.90;99.90
19496;DHT22;9888;48.606;9.630;2023-11-19T01:18:23;8.00;99.90
19496;DHT22;9888;48.606;9.630;2023-11-19T01:21:05;8.00;99.90
19496;DHT22;9888;48.606;9.630;2023-11-19T01:23:43;8.00;99.90
19496;DHT22;9888;48.606;9.630;2023-11-19T01:26:12;8.00;99.90
19496;DHT22;9888;48.606;9.630;2023-11-19T01:28:41;8.00;99.90
19496;DHT22;9888;48.606;9.630;2023-11-19T01:31:15;8.00;99.90
19496;DHT22;9888;48.606;9.630;2023-11-19T01:34:01;8.00;99.90
19496;DHT22;9888;48.606;9.630;2023-11-19T01:36:28;8.10;99.90
19496;DHT22;9888;48.606;9.630;2023-11-19T01:38:56;8.10;99.90
19496;DHT22;9888;48.606;9.630;2023-11-19T01:41:24;8.10;99.90
19496;DHT22;9888;48.606;9.630;2023-11-19T01:43:53;8.20;99.90
19496;DHT22;9888;48.606;9.630;2023-11-19T01:46:20;8.20;99.90
19496;DHT22;9888;48.606;9.630;2023-11-19T01:48:49;8.20;99.90
19496;DHT22;9888;48.606;9.630;2023-11-19T01:51:18;8.30;99.90
19496;DHT22;9888;48.606;9.630;2023-11-19T01:53:47;8.40;99.90
19496;DHT22;9888;48.606;9.630;2023-11-19T01:56:18;8.40;99.90
19496;DHT22;9888;48.606;9.630;2023-11-19T01:58:45;8.40;99.90
19496;DHT22;9888;48.606;9.630;2023-11-19T02:01:13;8.40;99.90
19496;DHT22;9888;48.606;9.630;2023-11-19T02:03:43;8.50;99.90
19496;DHT22;9888;48.606;9.630;2023-11-19T02:06:11;8.50;99.90
19496;DHT22;9888;48.606;9.630;2023-11-19T02:08:38;8.50;99.90
19496;DHT22;9888;48.606;9.630;2023-11-19T02:11:25;8.40;99.90
19496;DHT22;9888;48.606;9.630;2023-11-19T02:13:56;8.50;99.90
19496;DHT22;9888;48.606;9.630;2023-11-19T02:16:32;8.50;99.90
19496;DHT22;9888;48.606;9.630;2023-11-19T02:19:00;8.50;99.90
19496;DHT22;9888;48.606;9.630;2023-11-19T02:21:27;8.60;99.90
19496;DHT22;9888;48.606;9.630;2023-11-19T02:23:55;8.60;99.90
19496;DHT22;9888;48.606;9.630;2023-11-19T02:26:41;8.70;99.90
19496;DHT22;9888;48.606;9.630;2023-11-19T02:29:13;8.80;99.90
19496;DHT22;9888;48.606;9.630;2023-11-19T02:31:41;9.10;99.90
19496;DHT22;9888;48.606;9.630;2023-11-19T02:34:11;9.20;99.90
19496;DHT22;9888;48.606;9.630;2023-11-19T02:36:39;9.40;99.90
19496;DHT22;9888;48.606;9.630;2023-11-19T02:39:08;9.50;99.90
19496;DHT22;9888;48.606;9.630;2023-11-19T02:41:38;9.50;99.90
19496;DHT22;9888;48.606;9.630;2023-11-19T02:44:06;9.60;99.90
19496;DHT22;9888;48.606;9.630;2023-11-19T02:46:35;9.60;99.90
19496;DHT22;9888;48.606;9.630;2023-11-19T02:49:21;9.60;99.90
19496;DHT22;9888;48.606;9.630;2023-11-19T02:51:49;9.70;99.90
19496;DHT22;9888;48.606;9.630;2023-11-19T02:54:18;9.70;99.90
19496;DHT22;9888;48.606;9.630;2023-11-19T02:56:46;9.70;99.90
19496;DHT22;9888;48.606;9.630;2023-11-19T02:59:22;9.70;99.90
19496;DHT22;9888;48.606;9.630;2023-11-19T03:01:54;9.80;99.90
19496;DHT22;9888;48.606;9.630;2023-11-19T03:04:30;9.80;99.90
19496;DHT22;9888;48.606;9.630;2023-11-19T03:06:58;9.80;99.90
19496;DHT22;9888;48.606;9.630;2023-11-19T03:09:25;9.80;99.90
19496;DHT22;9888;48.606;9.630;2023-11-19T03:11:53;9.80;99.90
19496;DHT22;9888;48.606;9.630;2023-11-19T03:14:20;9.90;99.90
19496;DHT22;9888;48.606;9.630;2023-11-19T03:16:50;9.90;99.90
19496;DHT22;9888;48.606;9.630;2023-11-19T03:19:18;9.90;99.90
19496;DHT22;9888;48.606;9.630;2023-11-19T03:21:45;9.90;99.90
19496;DHT22;9888;48.606;9.630;2023-11-19T03:24:15;9.90;99.90
19496;DHT22;9888;48.606;9.630;2023-11-19T03:26:50;10.00;99.90
19496;DHT22;9888;48.606;9.630;2023-11-19T03:29:18;10.00;99.90
19496;DHT22;9888;48.606;9.630;2023-11-19T03:31:46;9.90;99.90
19496;DHT22;9888;48.606;9.630;2023-11-19T03:34:14;9.90;99.90
19496;DHT22;9888;48.606;9.630;2023-11-19T03:36:45;9.90;99.90
19496;DHT22;9888;48.606;9.630;2023-11-19T03:39:14;9.90;99.90
19496;DHT22;9888;48.606;9.630;2023-11-19T03:42:06;9.90;99.90
19496;DHT22;9888;48.606;9.630;2023-11-19T03:44:35;9.90;99.90
19496;DHT22;9888;48.606;9.630;2023-11-19T03:47:02;10.00;99.90
19496;DHT22;9888;48.606;9.630;2023-11-19T03:49:31;10.00;99.90
19496;DHT22;9888;48.606;9.630;2023-11-19T03:51:59;9.90;99.90
19496;DHT22;9888;48.606;9.630;2023-11-19T03:54:27;10.00;99.90
19496;DHT22;9888;48.606;9.630;2023-11-19T04:00:19;9.90;99.90
19496;DHT22;9888;48.606;9.630;2023-11-19T04:02:48;9.90;99.90
19496;DHT22;9888;48.606;9.630;2023-11-19T04:05:16;9.80;99.90
19496;DHT22;9888;48.606;9.630;2023-11-19T04:07:51;9.80;99.90
19496;DHT22;9888;48.606;9.630;2023-11-19T04:10:18;9.80;99.90
19496;DHT22;9888;48.606;9.630;2023-11-19T04:12:45;9.90;99.90
19496;DHT22;9888;48.606;9.630;2023-11-19T04:15:14;9.80;99.90
19496;DHT22;9888;48.606;9.630;2023-11-19T04:17:49;9.80;99.90
19496;DHT22;9888;48.606;9.630;2023-11-19T04:23:38;9.90;99.90
19496;DHT22;9888;48.606;9.630;2023-11-19T04:26:07;9.90;99.90
19496;DHT22;9888;48.606;9.630;2023-11-19T04:28:35;9.90;99.90
19496;DHT22;9888;48.606;9.630;2023-11-19T04:31:03;9.80;99.90
19496;DHT22;9888;48.606;9.630;2023-11-19T04:33:30;9.80;99.90
19496;DHT22;9888;48.606;9.630;2023-11-19T04:35:58;9.80;99.90
19496;DHT22;9888;48.606;9.630;2023-11-19T04:38:39;9.90;99.90
19496;DHT22;9888;48.606;9.630;2023-11-19T04:41:14;9.90;99.90
19496;DHT22;9888;48.606;9.630;2023-11-19T04:43:41;9.90;99.90
19496;DHT22;9888;48.606;9.630;2023-11-19T04:46:10;9.90;99.90
19496;DHT22;9888;48.606;9.630;2023-11-19T04:48:38;9.90;99.90
19496;DHT22;9888;48.606;9.630;2023-11-19T04:51:06;10.00;99.90
19496;DHT22;9888;48.606;9.630;2023-11-19T04:53:33;10.00;99.90
19496;DHT22;9888;48.606;9.630;2023-11-19T04:56:00;10.10;99.90
19496;DHT22;9888;48.606;9.630;2023-11-19T04:58:29;10.00;99.90
19496;DHT22;9888;48.606;9.630;2023-11-19T05:00:57;10.20;99.90
19496;DHT22;9888;48.606;9.630;2023-11-19T05:03:25;10.10;99.90
19496;DHT22;9888;48.606;9.630;2023-11-19T05:05:53;10.20;99.90
19496;DHT22;9888;48.606;9.630;2023-11-19T05:08:21;10.20;99.90
19496;DHT22;9888;48.606;9.630;2023-11-19T05:10:49;10.20;99.90
19496;DHT22;9888;48.606;9.630;2023-11-19T05:13:16;10.20;99.90
19496;DHT22;9888;48.606;9.630;2023-11-19T05:15:44;10.20;99.90
19496;DHT22;9888;48.606;9.630;2023-11-19T05:18:13;10.30;99.90
19496;DHT22;9888;48.606;9.630;2023-11-19T05:20:40;10.30;99.90
19496;DHT22;9888;48.606;9.630;2023-11-19T05:23:07;10.30;99.90
19496;DHT22;9888;48.606;9.630;2023-11-19T05:25:36;10.30;99.90
19496;DHT22;9888;48.606;9.630;2023-11-19T05:28:04;10.40;99.90
19496;DHT22;9888;48.606;9.630;2023-11-19T05:30:32;10.40;99.90
19496;DHT22;9888;48.606;9.630;2023-11-19T05:32:59;10.40;99.90
19496;DHT22;9888;48.606;9.630;2023-11-19T05:35:27;10.40;99.90
19496;DHT22;9888;48.606;9.630;2023-11-19T05:37:54;10.40;99.90
19496;DHT22;9888;48.606;9.630;2023-11-19T05:40:22;10.40;99.90
19496;DHT22;9888;48.606;9.630;2023-11-19T05:42:50;10.50;99.90
19496;DHT22;9888;48.606;9.630;2023-11-19T05:45:18;10.60;99.90
19496;DHT22;9888;48.606;9.630;2023-11-19T05:47:45;10.60;99.90
19496;DHT22;9888;48.606;9.630;2023-11-19T05:50:12;10.70;99.90
19496;DHT22;9888;48.606;9.630;2023-11-19T05:52:41;10.70;99.90
19496;DHT22;9888;48.606;9.630;2023-11-19T05:55:09;10.70;99.90
19496;DHT22;9888;48.606;9.630;2023-11-19T05:57:37;10.70;99.90
19496;DHT22;9888;48.606;9.630;2023-11-19T06:00:06;10.70;99.90
19496;DHT22;9888;48.606;9.630;2023-11-19T06:02:35;10.70;99.90
19496;DHT22;9888;48.606;9.630;2023-11-19T06:05:05;10.70;99.90
19496;DHT22;9888;48.606;9.630;2023-11-19T06:07:33;10.70;99.90
19496;DHT22;9888;48.606;9.630;2023-11-19T06:10:04;10.70;99.90
19496;DHT22;9888;48.606;9.630;2023-11-19T06:12:34;10.70;99.90
19496;DHT22;9888;48.606;9.630;2023-11-19T06:15:05;10.80;99.90
19496;DHT22;9888;48.606;9.630;2023-11-19T06:17:34;10.80;99.90
19496;DHT22;9888;48.606;9.630;2023-11-19T06:20:04;10.80;99.90
19496;DHT22;9888;48.606;9.630;2023-11-19T06:22:32;10.80;99.90
19496;DHT22;9888;48.606;9.630;2023-11-19T06:25:01;10.80;99.90
19496;DHT22;9888;48.606;9.630;2023-11-19T06:27:35;10.80;99.90
19496;DHT22;9888;48.606;9.630;2023-11-19T06:30:03;10.80;99.90
19496;DHT22;9888;48.606;9.630;2023-11-19T06:32:31;10.70;99.90
19496;DHT22;9888;48.606;9.630;2023-11-19T06:34:59;10.80;99.90
19496;DHT22;9888;48.606;9.630;2023-11-19T06:37:27;10.80;99.90
19496;DHT22;9888;48.606;9.630;2023-11-19T06:39:55;10.70;99.90
19496;DHT22;9888;48.606;9.630;2023-11-19T06:42:22;10.70;99.90
19496;DHT22;9888;48.606;9.630;2023-11-19T06:44:52;10.70;99.90
19496;DHT22;9888;48.606;9.630;2023-11-19T06:50:42;10.50;99.90
19496;DHT22;9888;48.606;9.630;2023-11-19T06:53:09;10.40;99.90
19496;DHT22;9888;48.606;9.630;2023-11-19T06:55:37;10.40;99.90
19496;DHT22;9888;48.606;9.630;2023-11-19T07:01:37;10.30;99.90
19496;DHT22;9888;48.606;9.630;2023-11-19T07:04:06;10.20;99.90
19496;DHT22;9888;48.606;9.630;2023-11-19T07:06:35;10.30;99.90
19496;DHT22;9888;48.606;9.630;2023-11-19T07:09:04;10.30;99.90
19496;DHT22;9888;48.606;9.630;2023-11-19T07:11:40;10.30;99.90
19496;DHT22;9888;48.606;9.630;2023-11-19T07:14:11;10.40;99.90
19496;DHT22;9888;48.606;9.630;2023-11-19T07:16:38;10.40;99.90
19496;DHT22;9888;48.606;9.630;2023-11-19T07:19:07;10.50;99.90
19496;DHT22;9888;48.606;9.630;2023-11-19T07:21:36;10.50;99.90
19496;DHT22;9888;48.606;9.630;2023-11-19T07:24:11;10.50;99.90
19496;DHT22;9888;48.606;9.630;2023-11-19T07:26:47;10.50;99.90
19496;DHT22;9888;48.606;9.630;2023-11-19T07:29:17;10.60;99.90
19496;DHT22;9888;48.606;9.630;2023-11-19T07:31:50;10.60;99.90
19496;DHT22;9888;48.606;9.630;2023-11-19T07:34:18;10.60;99.90
19496;DHT22;9888;48.606;9.630;2023-11-19T07:36:46;10.70;99.90
19496;DHT22;9888;48.606;9.630;2023-11-19T07:42:36;10.80;99.90
19496;DHT22;9888;48.606;9.630;2023-11-19T07:45:07;10.80;99.90
19496;DHT22;9888;48.606;9.630;2023-11-19T07:47:35;10.90;99.90
19496;DHT22;9888;48.606;9.630;2023-11-19T07:50:02;10.90;99.90
19496;DHT22;9888;48.606;9.630;2023-11-19T07:52:30;10.90;99.90
19496;DHT22;9888;48.606;9.630;2023-11-19T07:54:59;10.90;99.90
19496;DHT22;9888;48.606;9.630;2023-11-19T07:57:28;11.00;99.90
19496;DHT22;9888;48.606;9.630;2023-11-19T07:59:57;10.90;99.90
19496;DHT22;9888;48.606;9.630;2023-11-19T08:02:24;10.90;99.90
19496;DHT22;9888;48.606;9.630;2023-11-19T08:04:53;11.00;99.90
19496;DHT22;9888;48.606;9.630;2023-11-19T08:07:21;11.00;99.90
19496;DHT22;9888;48.606;9.630;2023-11-19T08:09:48;10.90;99.90
19496;DHT22;9888;48.606;9.630;2023-11-19T08:12:15;10.80;99.90
19496;DHT22;9888;48.606;9.630;2023-11-19T08:14:44;10.80;99.90
19496;DHT22;9888;48.606;9.630;2023-11-19T08:17:26;10.80;99.90
19496;DHT22;9888;48.606;9.630;2023-11-19T08:19:55;10.70;99.90
19496;DHT22;9888;48.606;9.630;2023-11-19T08:22:32;10.70;99.90
19496;DHT22;9888;48.606;9.630;2023-11-19T08:25:00;10.80;99.90
19496;DHT22;9888;48.606;9.630;2023-11-19T08:27:28;10.80;99.90
19496;DHT22;9888;48.606;9.630;2023-11-19T08:29:56;10.90;99.90
19496;DHT22;9888;48.606;9.630;2023-11-19T08:32:24;10.90;99.90
19496;DHT22;9888;48.606;9.630;2023-11-19T08:34:57;11.00;99.90
19496;DHT22;9888;48.606;9.630;2023-11-19T08:37:24;11.00;99.90
19496;DHT22;9888;48.606;9.630;2023-11-19T08:39:52;11.10;99.90
19496;DHT22;9888;48.606;9.630;2023-11-19T08:42:21;11.10;99.90
19496;DHT22;9888;48.606;9.630;2023-11-19T08:44:52;11.20;99.90
19496;DHT22;9888;48.606;9.630;2023-11-19T08:47:21;11.30;99.90
19496;DHT22;9888;48.606;9.630;2023-11-19T08:49:51;11.30;99.90
19496;DHT22;9888;48.606;9.630;2023-11-19T08:52:20;11.40;99.90
19496;DHT22;9888;48.606;9.630;2023-11-19T08:54:54;11.80;99.90
19496;DHT22;9888;48.606;9.630;2023-11-19T08:57:21;11.90;99.90
19496;DHT22;9888;48.606;9.630;2023-11-19T08:59:49;12.00;99.90
19496;DHT22;9888;48.606;9.630;2023-11-19T09:02:17;12.10;99.90
19496;DHT22;9888;48.606;9.630;2023-11-19T09:04:45;12.30;99.90
19496;DHT22;9888;48.606;9.630;2023-11-19T09:07:13;12.30;99.90
19496;DHT22;9888;48.606;9.630;2023-11-19T09:09:42;12.30;99.90
19496;DHT22;9888;48.606;9.630;2023-11-19T09:12:10;12.20;99.90
19496;DHT22;9888;48.606;9.630;2023-11-19T09:14:37;12.10;99.90
19496;DHT22;9888;48.606;9.630;2023-11-19T09:17:05;12.10;99.90
19496;DHT22;9888;48.606;9.630;2023-11-19T09:19:33;12.20;99.90
19496;DHT22;9888;48.606;9.630;2023-11-19T09:22:02;12.40;99.90
19496;DHT22;9888;48.606;9.630;2023-11-19T09:24:30;13.10;99.90
19496;DHT22;9888;48.606;9.630;2023-11-19T09:26:57;12.80;99.90
19496;DHT22;9888;48.606;9.630;2023-11-19T09:29:24;12.70;99.90
19496;DHT22;9888;48.606;9.630;2023-11-19T09:31:51;13.30;99.90
19496;DHT22;9888;48.606;9.630;2023-11-19T09:34:18;13.80;99.90
19496;DHT22;9888;48.606;9.630;2023-11-19T09:36:46;14.10;99.90
19496;DHT22;9888;48.606;9.630;2023-11-19T09:39:17;13.40;99.90
19496;DHT22;9888;48.606;9.630;2023-11-19T09:41:47;13.10;99.90
19496;DHT22;9888;48.606;9.630;2023-11-19T09:44:15;13.20;99.90
19496;DHT22;9888;48.606;9.630;2023-11-19T09:46:47;13.10;99.90
19496;DHT22;9888;48.606;9.630;2023-11-19T09:49:21;13.00;99.90
19496;DHT22;9888;48.606;9.630;2023-11-19T09:51:51;12.80;99.90
19496;DHT22;9888;48.606;9.630;2023-11-19T09:54:20;12.50;99.90
19496;DHT22;9888;48.606;9.630;2023-11-19T09:56:48;12.40;99.90
19496;DHT22;9888;48.606;9.630;2023-11-19T09:59:15;12.50;99.90
19496;DHT22;9888;48.606;9.630;2023-11-19T10:01:45;12.50;99.90
19496;DHT22;9888;48.606;9.630;2023-11-19T10:04:16;12.50;99.90
19496;DHT22;9888;48.606;9.630;2023-11-19T10:06:44;12.50;99.90
19496;DHT22;9888;48.606;9.630;2023-11-19T10:09:12;13.40;99.90
19496;DHT22;9888;48.606;9.630;2023-11-19T10:11:42;13.30;99.90
19496;DHT22;9888;48.606;9.630;2023-11-19T10:14:36;13.00;99.90
19496;DHT22;9888;48.606;9.630;2023-11-19T10:17:07;12.60;99.90
19496;DHT22;9888;48.606;9.630;2023-11-19T10:19:36;12.50;99.90
19496;DHT22;9888;48.606;9.630;2023-11-19T10:22:06;12.70;99.90
19496;DHT22;9888;48.606;9.630;2023-11-19T10:28:23;13.60;99.90
19496;DHT22;9888;48.606;9.630;2023-11-19T10:30:57;13.80;99.90
19496;DHT22;9888;48.606;9.630;2023-11-19T10:33:31;14.40;99.90
19496;DHT22;9888;48.606;9.630;2023-11-19T10:35:59;14.00;99.90
19496;DHT22;9888;48.606;9.630;2023-11-19T10:38:29;14.40;99.90
19496;DHT22;9888;48.606;9.630;2023-11-19T10:40:57;15.70;99.90
19496;DHT22;9888;48.606;9.630;2023-11-19T10:43:25;14.80;99.90
19496;DHT22;9888;48.606;9.630;2023-11-19T10:46:09;14.00;99.90
19496;DHT22;9888;48.606;9.630;2023-11-19T10:48:41;13.70;99.90
19496;DHT22;9888;48.606;9.630;2023-11-19T10:51:08;13.70;99.90
19496;DHT22;9888;48.606;9.630;2023-11-19T10:53:38;14.10;99.90
19496;DHT22;9888;48.606;9.630;2023-11-19T10:56:13;14.30;99.90
19496;DHT22;9888;48.606;9.630;2023-11-19T10:58:52;14.00;99.90
19496;DHT22;9888;48.606;9.630;2023-11-19T11:01:26;13.60;99.90
19496;DHT22;9888;48.606;9.630;2023-11-19T11:03:54;13.50;99.90
19496;DHT22;9888;48.606;9.630;2023-11-19T11:06:23;13.40;99.90
19496;DHT22;9888;48.606;9.630;2023-11-19T11:08:52;13.20;99.90
19496;DHT22;9888;48.606;9.630;2023-11-19T11:11:21;13.70;99.90
19496;DHT22;9888;48.606;9.630;2023-11-19T11:13:51;15.20;99.90
19496;DHT22;9888;48.606;9.630;2023-11-19T11:16:23;14.70;99.90
19496;DHT22;9888;48.606;9.630;2023-11-19T11:18:52;14.20;99.90
19496;DHT22;9888;48.606;9.630;2023-11-19T11:21:24;14.40;99.90
19496;DHT22;9888;48.606;9.630;2023-11-19T11:24:16;14.60;99.90
19496;DHT22;9888;48.606;9.630;2023-11-19T11:38:11;13.10;99.90
19496;DHT22;9888;48.606;9.630;2023-11-19T11:43:52;12.90;99.90
19496;DHT22;9888;48.606;9.630;2023-11-19T11:49:05;12.90;99.90
19496;DHT22;9888;48.606;9.630;2023-11-19T11:54:25;13.10;99.90
19496;DHT22;9888;48.606;9.630;2023-11-19T11:57:14;14.00;99.90
19496;DHT22;9888;48.606;9.630;2023-11-19T11:59:49;13.50;99.90
19496;DHT22;9888;48.606;9.630;2023-11-19T12:02:19;13.30;99.90
19496;DHT22;9888;48.606;9.630;2023-11-19T12:04:52;13.50;99.90
19496;DHT22;9888;48.606;9.630;2023-11-19T12:07:24;13.30;99.90
19496;DHT22;9888;48.606;9.630;2023-11-19T12:10:09;13.10;99.90
19496;DHT22;9888;48.606;9.630;2023-11-19T12:12:45;14.70;99.90
19496;DHT22;9888;48.606;9.630;2023-11-19T12:15:13;14.60;99.90
19496;DHT22;9888;48.606;9.630;2023-11-19T12:17:50;14.20;99.90
19496;DHT22;9888;48.606;9.630;2023-11-19T12:20:23;13.70;99.90
19496;DHT22;9888;48.606;9.630;2023-11-19T12:22:51;13.80;99.90
19496;DHT22;9888;48.606;9.630;2023-11-19T12:25:19;13.80;99.90
19496;DHT22;9888;48.606;9.630;2023-11-19T12:27:50;13.70;99.90
19496;DHT22;9888;48.606;9.630;2023-11-19T12:30:26;13.60;99.90
19496;DHT22;9888;48.606;9.630;2023-11-19T12:32:56;13.60;99.90
19496;DHT22;9888;48.606;9.630;2023-11-19T12:35:27;13.70;99.90
19496;DHT22;9888;48.606;9.630;2023-11-19T12:37:55;13.90;99.90
19496;DHT22;9888;48.606;9.630;2023-11-19T12:40:23;14.10;99.90
19496;DHT22;9888;48.606;9.630;2023-11-19T12:42:52;14.60;99.90
19496;DHT22;9888;48.606;9.630;2023-11-19T12:45:21;14.00;99.90
19496;DHT22;9888;48.606;9.630;2023-11-19T12:48:03;13.50;99.90
19496;DHT22;9888;48.606;9.630;2023-11-19T12:50:52;13.30;99.90
19496;DHT22;9888;48.606;9.630;2023-11-19T12:53:21;13.70;99.90
19496;DHT22;9888;48.606;9.630;2023-11-19T12:55:55;14.10;99.90
19496;DHT22;9888;48.606;9.630;2023-11-19T12:58:38;14.40;99.90
19496;DHT22;9888;48.606;9.630;2023-11-19T13:01:10;14.10;99.90
19496;DHT22;9888;48.606;9.630;2023-11-19T13:03:43;14.10;99.90
19496;DHT22;9888;48.606;9.630;2023-11-19T13:06:12;13.80;99.90
19496;DHT22;9888;48.606;9.630;2023-11-19T13:08:47;13.60;99.90
19496;DHT22;9888;48.606;9.630;2023-11-19T13:11:34;13.80;99.90
19496;DHT22;9888;48.606;9.630;2023-11-19T13:14:06;13.70;99.90
19496;DHT22;9888;48.606;9.630;2023-11-19T13:16:38;13.70;99.90
19496;DHT22;9888;48.606;9.630;2023-11-19T13:19:05;13.40;99.90
19496;DHT22;9888;48.606;9.630;2023-11-19T13:21:34;13.40;99.90
19496;DHT22;9888;48.606;9.630;2023-11-19T13:24:01;13.30;99.90
19496;DHT22;9888;48.606;9.630;2023-11-19T13:29:35;13.20;99.90
19496;DHT22;9888;48.606;9.630;2023-11-19T13:32:03;13.30;99.90
19496;DHT22;9888;48.606;9.630;2023-11-19T13:34:47;13.40;99.90
19496;DHT22;9888;48.606;9.630;2023-11-19T13:37:16;13.50;99.90
19496;DHT22;9888;48.606;9.630;2023-11-19T13:39:43;13.50;99.90
19496;DHT22;9888;48.606;9.630;2023-11-19T13:42:12;13.50;99.90
19496;DHT22;9888;48.606;9.630;2023-11-19T13:44:39;13.70;99.90
19496;DHT22;9888;48.606;9.630;2023-11-19T13:47:06;13.70;99.90
19496;DHT22;9888;48.606;9.630;2023-11-19T13:49:34;13.90;99.90
19496;DHT22;9888;48.606;9.630;2023-11-19T13:52:01;13.80;99.90
19496;DHT22;9888;48.606;9.630;2023-11-19T13:54:28;13.50;99.90
19496;DHT22;9888;48.606;9.630;2023-11-19T13:56:56;13.30;99.90
19496;DHT22;9888;48.606;9.630;2023-11-19T13:59:27;13.10;99.90
19496;DHT22;9888;48.606;9.630;2023-11-19T14:01:57;13.00;99.90
19496;DHT22;9888;48.606;9.630;2023-11-19T14:04:24;12.90;99.90
19496;DHT22;9888;48.606;9.630;2023-11-19T14:06:51;12.90;99.90
19496;DHT22;9888;48.606;9.630;2023-11-19T14:09:18;12.90;99.90
19496;DHT22;9888;48.606;9.630;2023-11-19T14:11:46;13.00;99.90
19496;DHT22;9888;48.606;9.630;2023-11-19T14:14:15;13.10;99.90
19496;DHT22;9888;48.606;9.630;2023-11-19T14:16:43;13.10;99.90
19496;DHT22;9888;48.606;9.630;2023-11-19T14:19:10;13.10;99.90
19496;DHT22;9888;48.606;9.630;2023-11-19T14:21:38;13.00;99.90
19496;DHT22;9888;48.606;9.630;2023-11-19T14:24:09;12.90;99.90
19496;DHT22;9888;48.606;9.630;2023-11-19T14:26:36;12.90;99.90
19496;DHT22;9888;48.606;9.630;2023-11-19T14:29:04;12.90;99.90
19496;DHT22;9888;48.606;9.630;2023-11-19T14:31:32;12.80;99.90
19496;DHT22;9888;48.606;9.630;2023-11-19T14:34:00;12.80;99.90
19496;DHT22;9888;48.606;9.630;2023-11-19T14:36:29;12.80;99.90
19496;DHT22;9888;48.606;9.630;2023-11-19T14:38:57;12.80;99.90
19496;DHT22;9888;48.606;9.630;2023-11-19T14:41:25;12.70;99.90
19496;DHT22;9888;48.606;9.630;2023-11-19T14:43:52;12.80;99.90
19496;DHT22;9888;48.606;9.630;2023-11-19T14:46:20;12.70;99.90
19496;DHT22;9888;48.606;9.630;2023-11-19T14:48:47;12.60;99.90
19496;DHT22;9888;48.606;9.630;2023-11-19T14:51:14;12.50;99.90
19496;DHT22;9888;48.606;9.630;2023-11-19T14:53:42;12.50;99.90
19496;DHT22;9888;48.606;9.630;2023-11-19T14:56:12;12.50;99.90
19496;DHT22;9888;48.606;9.630;2023-11-19T14:58:46;12.30;99.90
19496;DHT22;9888;48.606;9.630;2023-11-19T15:01:14;12.40;99.90
19496;DHT22;9888;48.606;9.630;2023-11-19T15:03:41;12.30;99.90
19496;DHT22;9888;48.606;9.630;2023-11-19T15:06:10;12.20;99.90
19496;DHT22;9888;48.606;9.630;2023-11-19T15:08:40;12.10;99.90
19496;DHT22;9888;48.606;9.630;2023-11-19T15:11:08;12.10;99.90
19496;DHT22;9888;48.606;9.630;2023-11-19T15:13:35;12.00;99.90
19496;DHT22;9888;48.606;9.630;2023-11-19T15:16:04;12.00;99.90
19496;DHT22;9888;48.606;9.630;2023-11-19T15:18:38;12.00;99.90
19496;DHT22;9888;48.606;9.630;2023-11-19T15:21:06;11.90;99.90
19496;DHT22;9888;48.606;9.630;2023-11-19T15:23:34;11.90;99.90
19496;DHT22;9888;48.606;9.630;2023-11-19T15:26:03;12.00;99.90
19496;DHT22;9888;48.606;9.630;2023-11-19T15:28:31;12.10;99.90
19496;DHT22;9888;48.606;9.630;2023-11-19T15:30:58;12.00;99.90
19496;DHT22;9888;48.606;9.630;2023-11-19T15:33:26;11.90;99.90
19496;DHT22;9888;48.606;9.630;2023-11-19T15:35:54;11.90;99.90
19496;DHT22;9888;48.606;9.630;2023-11-19T15:38:22;11.90;99.90
19496;DHT22;9888;48.606;9.630;2023-11-19T15:40:49;12.00;99.90
19496;DHT22;9888;48.606;9.630;2023-11-19T15:43:17;12.00;99.90
19496;DHT22;9888;48.606;9.630;2023-11-19T15:45:48;11.90;99.90
19496;DHT22;9888;48.606;9.630;2023-11-19T15:48:17;11.90;99.90
19496;DHT22;9888;48.606;9.630;2023-11-19T15:50:45;11.90;99.90
19496;DHT22;9888;48.606;9.630;2023-11-19T15:53:12;11.90;99.90
19496;DHT22;9888;48.606;9.630;2023-11-19T15:55:40;11.90;99.90
19496;DHT22;9888;48.606;9.630;2023-11-19T15:58:08;11.90;99.90
19496;DHT22;9888;48.606;9.630;2023-11-19T16:00:36;11.90;99.90
19496;DHT22;9888;48.606;9.630;2023-11-19T16:03:02;11.90;99.90
19496;DHT22;9888;48.606;9.630;2023-11-19T16:05:39;11.90;99.90
19496;DHT22;9888;48.606;9.630;2023-11-19T16:08:07;11.90;99.90
19496;DHT22;9888;48.606;9.630;2023-11-19T16:10:38;11.80;99.90
19496;DHT22;9888;48.606;9.630;2023-11-19T16:13:15;11.80;99.90
19496;DHT22;9888;48.606;9.630;2023-11-19T16:15:45;11.80;99.90
19496;DHT22;9888;48.606;9.630;2023-11-19T16:18:13;11.70;99.90
19496;DHT22;9888;48.606;9.630;2023-11-19T16:20:40;11.70;99.90
19496;DHT22;9888;48.606;9.630;2023-11-19T16:23:09;11.70;99.90
19496;DHT22;9888;48.606;9.630;2023-11-19T16:25:36;11.70;99.90
19496;DHT22;9888;48.606;9.630;2023-11-19T16:28:05;11.80;99.90
19496;DHT22;9888;48.606;9.630;2023-11-19T16:30:37;11.80;99.90
19496;DHT22;9888;48.606;9.630;2023-11-19T16:33:05;11.80;99.90
19496;DHT22;9888;48.606;9.630;2023-11-19T16:35:33;11.60;99.90
19496;DHT22;9888;48.606;9.630;2023-11-19T16:38:04;11.60;99.90
19496;DHT22;9888;48.606;9.630;2023-11-19T16:40:38;11.60;99.90
19496;DHT22;9888;48.606;9.630;2023-11-19T16:43:07;11.60;99.90
19496;DHT22;9888;48.606;9.630;2023-11-19T16:45:34;11.60;99.90
19496;DHT22;9888;48.606;9.630;2023-11-19T16:48:01;11.60;99.90
19496;DHT22;9888;48.606;9.630;2023-11-19T16:50:30;11.60;99.90